Calgary, Canada
Current Conditions -  °F | °C
As of 12:00 AM on Saturday 25 Oct 2014 (Local Time) from CYYC Reporting Station
Broken Clouds Broken Clouds  
Wind Chill: 32°   Ceiling: 20000
Heat Index: 32°   Visibility: 15mi
Dew Point: 18°   Wind: 3mph
Humidity: 55%   Direction: 50°NE
Pressure: 30.03"   Gusts: NA
Location:  51.05°N, 114.06°W
Report Text: CYYC 250600Z 05003KT 15SM BKN200 00/M08 A3003 RMK CI6 SLP205
Loading
Personal Weather Stations






























Interactive Weather Map
Tropical Storm Tracking
New forecast layout! Learn more

10-Day Weather Forecast

Advertisements
Track Severe Weather on mobile